Time;durP1;ratioP1;P1;durP2;ratioP2;P2;SDS_P1;SDS_P2;PMS_P1;PMS_P2;Temp;Humidity;BMP_temperature;BMP_pressure;BME280_temperature;BME280_humidity;BME280_pressure;Samples;Min_cycle;Max_cycle;Signal;HPM_P1;HPM_P2
2021/06/27 00:00:11;;;;;;;3.08;2.42;;;20.50;99.90;;;;;;5131981;27;20463;-64
2021/06/27 00:02:38;;;;;;;3.35;2.50;;;20.50;99.90;;;;;;5131286;27;20450;-64
2021/06/27 00:05:09;;;;;;;2.20;2.00;;;20.50;99.90;;;;;;5132129;27;20881;-64
2021/06/27 00:07:36;;;;;;;4.10;3.25;;;20.50;99.90;;;;;;5131422;27;20470;-64
2021/06/27 00:10:05;;;;;;;2.60;2.40;;;20.50;99.90;;;;;;5130478;27;20461;-64
2021/06/27 00:12:32;;;;;;;3.35;3.03;;;20.40;99.90;;;;;;5128209;27;20422;-64
2021/06/27 00:14:59;;;;;;;3.40;2.60;;;20.40;99.90;;;;;;5126873;27;20775;-64
2021/06/27 00:17:26;;;;;;;3.33;3.03;;;20.40;99.90;;;;;;5132006;27;20498;-64
2021/06/27 00:19:53;;;;;;;2.90;2.30;;;20.40;99.90;;;;;;5131792;27;20505;-63
2021/06/27 00:22:21;;;;;;;3.10;2.80;;;20.40;99.90;;;;;;5130350;27;20513;-64
2021/06/27 00:24:48;;;;;;;3.20;2.90;;;20.30;99.90;;;;;;5131261;27;20501;-64
2021/06/27 00:27:15;;;;;;;3.05;2.75;;;20.30;99.90;;;;;;5131059;27;20605;-64
2021/06/27 00:29:42;;;;;;;2.90;2.60;;;20.20;99.90;;;;;;5131734;27;20473;-64
2021/06/27 00:32:09;;;;;;;2.90;2.60;;;20.10;99.90;;;;;;5131636;28;20450;-64
2021/06/27 00:34:36;;;;;;;3.20;2.08;;;20.10;99.90;;;;;;5131820;28;20909;-64
2021/06/27 00:37:03;;;;;;;4.32;2.70;;;20.10;99.90;;;;;;5133716;28;20474;-64
2021/06/27 00:39:31;;;;;;;2.58;2.38;;;20.10;99.90;;;;;;5132141;28;20642;-64
2021/06/27 00:41:58;;;;;;;4.25;3.20;;;20.20;99.90;;;;;;5132204;28;20505;-64
2021/06/27 00:44:25;;;;;;;2.85;2.50;;;20.20;99.90;;;;;;5129547;28;20506;-64
2021/06/27 00:46:53;;;;;;;3.03;2.53;;;20.20;99.90;;;;;;5131982;28;20505;-64
2021/06/27 00:49:20;;;;;;;3.50;3.20;;;20.20;99.90;;;;;;5131425;28;20936;-64
2021/06/27 00:51:47;;;;;;;3.30;3.00;;;20.10;99.90;;;;;;5134446;27;20508;-64
2021/06/27 00:54:14;;;;;;;3.80;3.40;;;20.10;99.90;;;;;;5134815;27;20768;-63
2021/06/27 00:56:45;;;;;;;3.35;3.05;;;20.10;99.90;;;;;;5135694;27;20462;-63
2021/06/27 00:59:12;;;;;;;4.70;3.40;;;20.10;99.90;;;;;;5134418;27;20537;-64
2021/06/27 01:01:39;;;;;;;4.40;2.70;;;20.00;99.90;;;;;;5136575;27;20913;-63
2021/06/27 01:04:06;;;;;;;3.35;2.55;;;20.00;99.90;;;;;;5137368;27;20520;-64
2021/06/27 01:06:33;;;;;;;3.08;2.78;;;19.90;99.90;;;;;;5137969;27;20896;-64
2021/06/27 01:09:00;;;;;;;3.40;3.10;;;19.90;99.90;;;;;;5136746;27;20470;-63
2021/06/27 01:11:27;;;;;;;4.65;3.05;;;19.90;99.90;;;;;;5136935;27;20470;-64
2021/06/27 01:13:56;;;;;;;3.70;3.30;;;19.80;99.90;;;;;;5135861;27;20810;-63
2021/06/27 01:16:23;;;;;;;5.20;3.20;;;19.80;99.90;;;;;;5136397;27;20496;-64
2021/06/27 01:18:54;;;;;;;3.25;2.95;;;19.80;99.90;;;;;;5135999;27;20781;-63
2021/06/27 01:21:24;;;;;;;3.42;3.13;;;19.80;99.90;;;;;;5137330;27;20418;-63
2021/06/27 01:23:50;;;;;;;3.00;2.70;;;19.70;99.90;;;;;;5136420;27;20514;-64
2021/06/27 01:26:17;;;;;;;3.35;3.05;;;19.80;99.90;;;;;;5137720;27;20490;-63
2021/06/27 01:28:44;;;;;;;3.03;2.73;;;19.80;99.90;;;;;;5137360;27;20823;-64
2021/06/27 01:31:11;;;;;;;3.42;2.80;;;19.80;99.90;;;;;;5138223;27;20497;-63
2021/06/27 01:33:38;;;;;;;3.10;2.72;;;19.80;99.90;;;;;;5137493;27;20465;-64
2021/06/27 01:36:06;;;;;;;3.83;2.85;;;19.80;99.90;;;;;;5137375;27;20422;-64
2021/06/27 01:38:36;;;;;;;3.03;2.72;;;19.70;99.90;;;;;;5137023;27;20475;-64
2021/06/27 01:41:05;;;;;;;2.90;2.60;;;19.70;99.90;;;;;;5137169;27;20419;-63
2021/06/27 01:43:32;;;;;;;3.63;3.17;;;19.70;99.90;;;;;;5137272;27;20461;-64
2021/06/27 01:46:01;;;;;;;3.60;3.30;;;19.60;99.90;;;;;;5136977;27;20798;-64
2021/06/27 01:48:29;;;;;;;3.30;3.00;;;19.60;99.90;;;;;;5129630;27;20711;-63
2021/06/27 01:50:58;;;;;;;5.22;2.83;;;19.60;99.90;;;;;;5137759;27;20407;-64
2021/06/27 01:53:28;;;;;;;3.10;2.80;;;19.50;99.90;;;;;;5137349;27;20872;-63
2021/06/27 01:56:06;;;;;;;3.55;2.70;;;19.40;99.90;;;;;;5137444;27;20506;-64
2021/06/27 01:58:36;;;;;;;3.00;2.70;;;19.50;99.90;;;;;;5137135;27;20433;-64
2021/06/27 02:01:05;;;;;;;2.97;2.60;;;19.50;99.90;;;;;;5137203;27;20466;-64
2021/06/27 02:03:32;;;;;;;3.80;2.70;;;19.60;99.90;;;;;;5135768;27;20787;-64
2021/06/27 02:05:59;;;;;;;2.90;2.40;;;19.60;99.90;;;;;;5136186;27;20465;-64
2021/06/27 02:08:31;;;;;;;4.40;3.17;;;19.60;99.90;;;;;;5135282;27;20799;-64
2021/06/27 02:10:59;;;;;;;2.67;2.20;;;19.60;99.90;;;;;;5134314;27;20521;-64
2021/06/27 02:13:26;;;;;;;3.25;2.97;;;19.60;99.90;;;;;;5133837;27;20900;-63
2021/06/27 02:15:53;;;;;;;3.80;3.22;;;19.50;99.90;;;;;;5134939;27;20474;-63
2021/06/27 02:18:29;;;;;;;3.03;2.40;;;19.40;99.90;;;;;;5133847;27;20446;-64
2021/06/27 02:21:01;;;;;;;2.60;2.30;;;19.40;99.90;;;;;;5135252;27;20868;-64
2021/06/27 02:23:29;;;;;;;2.80;2.28;;;19.50;99.90;;;;;;5135458;27;20483;-63
2021/06/27 02:25:56;;;;;;;2.80;1.95;;;19.50;99.90;;;;;;5136155;27;20410;-64
2021/06/27 02:28:24;;;;;;;2.70;2.50;;;19.50;99.90;;;;;;5136619;27;20418;-62
2021/06/27 02:30:51;;;;;;;3.20;2.63;;;19.50;99.90;;;;;;5135424;27;20518;-64
2021/06/27 02:33:19;;;;;;;4.00;2.40;;;19.50;99.90;;;;;;5135254;27;20510;-63
2021/06/27 02:35:46;;;;;;;2.97;2.35;;;19.40;99.90;;;;;;5135733;27;20505;-64
2021/06/27 02:38:13;;;;;;;3.15;2.85;;;19.40;99.90;;;;;;5126545;27;20545;-63
2021/06/27 02:40:42;;;;;;;2.80;2.20;;;19.40;99.90;;;;;;5136195;27;20507;-62
2021/06/27 02:43:10;;;;;;;2.57;2.20;;;19.40;99.90;;;;;;5135471;27;20421;-63
2021/06/27 02:45:38;;;;;;;3.33;2.03;;;19.50;99.90;;;;;;5136248;27;20706;-62
2021/06/27 02:48:06;;;;;;;1.97;1.47;;;19.40;99.90;;;;;;5135488;27;20430;-62
2021/06/27 02:50:35;;;;;;;3.45;2.08;;;19.40;99.90;;;;;;5135534;27;20418;-62
2021/06/27 02:53:02;;;;;;;3.53;2.33;;;19.40;99.90;;;;;;5136188;27;20423;-62
2021/06/27 02:55:29;;;;;;;2.67;2.20;;;19.30;99.90;;;;;;5136240;27;20497;-63
2021/06/27 02:57:56;;;;;;;2.90;2.07;;;19.30;99.90;;;;;;5129853;27;20514;-62
2021/06/27 03:00:23;;;;;;;2.40;2.00;;;19.20;99.90;;;;;;5134620;27;20410;-63
2021/06/27 03:02:51;;;;;;;2.40;2.20;;;19.20;99.90;;;;;;5136346;27;20508;-62
2021/06/27 03:05:18;;;;;;;2.40;1.90;;;19.20;99.90;;;;;;5137081;27;20833;-63
2021/06/27 03:07:45;;;;;;;3.20;1.75;;;19.20;99.90;;;;;;5135487;27;20673;-63
2021/06/27 03:10:14;;;;;;;3.47;2.10;;;19.20;99.90;;;;;;5134798;27;20453;-62
2021/06/27 03:12:42;;;;;;;2.90;1.73;;;19.10;99.90;;;;;;5135312;27;20857;-63
2021/06/27 03:15:10;;;;;;;2.80;1.60;;;19.10;99.90;;;;;;5135161;27;20426;-63
2021/06/27 03:17:37;;;;;;;2.10;1.90;;;19.10;99.90;;;;;;5134741;27;20513;-63
2021/06/27 03:20:08;;;;;;;3.30;2.40;;;19.10;99.90;;;;;;5134935;27;20781;-63
2021/06/27 03:22:35;;;;;;;2.30;1.90;;;19.00;99.90;;;;;;5135062;27;20422;-62
2021/06/27 03:25:02;;;;;;;2.33;1.63;;;19.00;99.90;;;;;;5135995;27;20725;-62
2021/06/27 03:27:30;;;;;;;2.27;1.60;;;19.00;99.90;;;;;;5134604;27;20446;-63
2021/06/27 03:29:57;;;;;;;3.20;1.67;;;19.10;99.90;;;;;;5134027;27;20456;-62
2021/06/27 03:32:24;;;;;;;2.10;1.80;;;19.10;99.90;;;;;;5133415;27;20414;-62
2021/06/27 03:34:51;;;;;;;2.28;1.80;;;18.90;99.90;;;;;;5133568;27;20509;-62
2021/06/27 03:37:19;;;;;;;1.83;1.55;;;19.00;99.90;;;;;;5133843;27;20446;-62
2021/06/27 03:39:46;;;;;;;2.30;2.10;;;19.10;99.90;;;;;;5133405;27;20426;-63
2021/06/27 03:42:13;;;;;;;2.40;1.80;;;19.20;99.90;;;;;;5134410;27;20700;-61
2021/06/27 03:44:40;;;;;;;2.60;1.90;;;19.30;99.90;;;;;;5135772;27;20771;-62
2021/06/27 03:47:07;;;;;;;2.30;1.70;;;19.20;99.90;;;;;;5135228;27;20453;-62
2021/06/27 03:49:34;;;;;;;1.88;1.67;;;19.10;99.90;;;;;;5135862;27;20480;-62
2021/06/27 03:52:01;;;;;;;3.13;1.85;;;19.10;99.90;;;;;;5134853;27;20454;-62
2021/06/27 03:54:29;;;;;;;2.70;1.90;;;19.10;99.90;;;;;;5134147;27;20422;-63
2021/06/27 03:56:56;;;;;;;2.08;1.60;;;19.30;99.90;;;;;;5133938;27;20459;-63
2021/06/27 03:59:23;;;;;;;1.85;1.50;;;19.30;99.90;;;;;;5134806;27;20422;-61
2021/06/27 04:01:50;;;;;;;3.15;1.77;;;19.40;99.90;;;;;;5135376;27;20513;-63
2021/06/27 04:04:17;;;;;;;3.10;1.90;;;19.40;99.90;;;;;;5136163;27;20513;-62
2021/06/27 04:06:44;;;;;;;2.60;2.13;;;19.70;99.90;;;;;;5136023;27;20872;-62
2021/06/27 04:09:10;;;;;;;2.78;2.58;;;19.60;99.90;;;;;;5135842;27;20472;-65
2021/06/27 04:11:39;;;;;;;3.50;2.20;;;19.60;99.90;;;;;;5135125;27;20497;-63
2021/06/27 04:14:06;;;;;;;2.90;2.17;;;19.40;99.90;;;;;;5135870;27;20446;-62
2021/06/27 04:16:33;;;;;;;2.10;1.90;;;19.40;99.90;;;;;;5135503;27;20422;-62
2021/06/27 04:19:00;;;;;;;2.10;1.63;;;19.70;99.90;;;;;;5134467;27;20426;-62
2021/06/27 04:21:27;;;;;;;2.88;2.65;;;19.70;99.90;;;;;;5134236;27;20446;-62
2021/06/27 04:23:54;;;;;;;2.85;1.75;;;19.70;99.90;;;;;;5134790;27;20520;-63
2021/06/27 04:26:21;;;;;;;2.30;2.03;;;19.70;99.90;;;;;;5133762;27;20867;-62
2021/06/27 04:28:49;;;;;;;2.85;1.80;;;19.80;99.90;;;;;;5134164;27;20852;-62
2021/06/27 04:31:16;;;;;;;2.10;1.50;;;19.90;99.90;;;;;;5134891;27;20725;-62
2021/06/27 04:33:43;;;;;;;2.40;2.20;;;20.00;99.90;;;;;;5135375;28;20422;-62
2021/06/27 04:36:10;;;;;;;3.50;1.90;;;20.00;99.90;;;;;;5135395;28;20502;-62
2021/06/27 04:38:36;;;;;;;2.33;1.90;;;20.00;99.90;;;;;;5135612;28;20430;-62
2021/06/27 04:41:03;;;;;;;2.10;1.90;;;20.00;99.90;;;;;;5135744;28;20414;-62
2021/06/27 04:43:30;;;;;;;2.67;1.60;;;20.00;99.90;;;;;;5135770;28;20458;-61
2021/06/27 04:45:58;;;;;;;2.60;2.40;;;20.00;99.90;;;;;;5135388;28;20785;-62
2021/06/27 04:48:25;;;;;;;2.20;2.00;;;20.10;99.90;;;;;;5135531;28;20794;-61
2021/06/27 04:50:52;;;;;;;2.60;2.10;;;20.10;99.90;;;;;;5136116;28;20506;-62
2021/06/27 04:53:19;;;;;;;2.50;1.50;;;20.10;99.90;;;;;;5135545;28;20471;-62
2021/06/27 04:55:46;;;;;;;2.20;1.90;;;20.10;99.90;;;;;;5135226;28;20788;-62
2021/06/27 04:58:13;;;;;;;2.50;1.70;;;20.10;99.90;;;;;;5135887;28;20529;-61
2021/06/27 05:00:41;;;;;;;2.10;1.60;;;20.10;99.90;;;;;;5135928;28;20426;-62
2021/06/27 05:03:09;;;;;;;2.90;1.50;;;20.20;99.90;;;;;;5135516;28;20430;-62
2021/06/27 05:05:36;;;;;;;1.70;1.50;;;20.30;99.90;;;;;;5135201;28;20900;-62
2021/06/27 05:08:04;;;;;;;2.10;1.40;;;20.30;99.90;;;;;;5135579;28;20453;-62
2021/06/27 05:10:31;;;;;;;2.00;1.70;;;20.40;99.90;;;;;;5135335;28;20517;-62
2021/06/27 05:12:57;;;;;;;2.10;1.88;;;20.30;99.90;;;;;;5134656;28;20453;-62
2021/06/27 05:15:24;;;;;;;2.30;1.93;;;20.10;99.90;;;;;;5134676;28;20709;-63
2021/06/27 05:17:51;;;;;;;2.90;1.60;;;19.90;99.90;;;;;;5135478;28;20450;-63
2021/06/27 05:20:20;;;;;;;1.95;1.67;;;19.80;99.90;;;;;;5136049;28;20402;-62
2021/06/27 05:22:46;;;;;;;1.70;1.40;;;20.00;99.90;;;;;;5130082;28;20783;-63
2021/06/27 05:25:14;;;;;;;2.13;1.40;;;20.10;99.90;;;;;;5131156;28;20490;-62
2021/06/27 05:27:41;;;;;;;1.77;1.52;;;20.10;99.90;;;;;;5134303;28;20476;-62
2021/06/27 05:30:09;;;;;;;2.58;2.38;;;20.30;99.90;;;;;;5134989;28;20522;-63
2021/06/27 05:32:36;;;;;;;2.40;2.10;;;20.40;99.90;;;;;;5135022;28;20449;-62
2021/06/27 05:35:04;;;;;;;2.30;1.85;;;20.30;99.90;;;;;;5135152;28;20501;-63
2021/06/27 05:37:33;;;;;;;2.30;2.00;;;20.20;99.90;;;;;;5136823;27;20495;-62
2021/06/27 05:40:00;;;;;;;3.23;2.50;;;20.00;99.90;;;;;;5138360;27;20415;-63
2021/06/27 05:42:27;;;;;;;2.58;2.22;;;19.90;99.90;;;;;;5139077;27;20434;-62
2021/06/27 05:44:53;;;;;;;4.00;2.28;;;19.80;99.90;;;;;;5138636;27;20459;-63
2021/06/27 05:47:20;;;;;;;2.17;1.98;;;19.70;99.90;;;;;;5136814;27;20457;-62
2021/06/27 05:49:47;;;;;;;2.60;1.70;;;19.80;99.90;;;;;;5130558;27;20491;-63
2021/06/27 05:52:14;;;;;;;2.80;1.50;;;20.00;99.90;;;;;;5137745;27;20762;-62
2021/06/27 05:54:42;;;;;;;4.03;2.90;;;20.30;99.90;;;;;;5138565;27;20415;-63
2021/06/27 05:57:09;;;;;;;2.30;1.92;;;20.40;99.90;;;;;;5138105;27;20502;-65
2021/06/27 05:59:36;;;;;;;3.00;2.47;;;20.40;99.90;;;;;;5137573;27;20487;-62
2021/06/27 06:02:03;;;;;;;2.63;1.90;;;20.30;99.90;;;;;;5135613;27;20458;-62
2021/06/27 06:04:30;;;;;;;2.92;1.60;;;20.20;99.90;;;;;;5136712;27;20781;-62
2021/06/27 06:06:57;;;;;;;1.80;1.50;;;20.20;99.90;;;;;;5136478;27;20772;-62
2021/06/27 06:09:24;;;;;;;1.60;1.40;;;20.40;99.90;;;;;;5136467;27;20520;-62
2021/06/27 06:11:52;;;;;;;1.80;1.50;;;20.50;99.90;;;;;;5136384;27;20457;-62
2021/06/27 06:14:19;;;;;;;1.88;1.50;;;20.60;99.90;;;;;;5136159;27;20422;-63
2021/06/27 06:16:47;;;;;;;1.63;1.10;;;20.70;99.90;;;;;;5136730;27;20418;-62
2021/06/27 06:19:15;;;;;;;1.50;1.20;;;20.70;99.90;;;;;;5136894;27;20418;-62
2021/06/27 06:21:42;;;;;;;2.03;1.20;;;20.70;99.90;;;;;;5137099;27;20418;-63
2021/06/27 06:24:09;;;;;;;1.50;1.20;;;20.90;99.90;;;;;;5138026;27;20468;-61
2021/06/27 06:26:36;;;;;;;1.40;1.10;;;21.00;99.90;;;;;;5137549;27;20454;-62
2021/06/27 06:29:04;;;;;;;1.60;1.10;;;21.20;99.90;;;;;;5137949;27;20440;-62
2021/06/27 06:31:31;;;;;;;2.50;1.10;;;21.20;99.90;;;;;;5137914;27;20418;-62
2021/06/27 06:33:58;;;;;;;1.70;1.20;;;21.00;99.90;;;;;;5137744;27;20460;-64
2021/06/27 06:36:25;;;;;;;1.30;1.00;;;21.00;99.90;;;;;;5137636;27;20487;-63
2021/06/27 06:38:52;;;;;;;1.30;1.10;;;21.10;99.90;;;;;;5137877;27;20463;-62
2021/06/27 06:41:20;;;;;;;1.42;1.10;;;21.20;99.90;;;;;;5136982;27;20449;-63
2021/06/27 06:43:47;;;;;;;2.30;1.00;;;21.30;99.90;;;;;;5137461;27;20462;-63
2021/06/27 06:46:15;;;;;;;1.50;1.10;;;21.40;99.90;;;;;;5137027;27;20782;-62
2021/06/27 06:48:42;;;;;;;1.20;1.00;;;21.50;99.90;;;;;;5135590;27;20483;-64
2021/06/27 06:51:09;;;;;;;1.80;1.00;;;21.70;99.90;;;;;;5136980;27;20872;-64
2021/06/27 06:53:36;;;;;;;1.40;1.10;;;21.80;99.90;;;;;;5136838;27;20502;-64
2021/06/27 06:56:04;;;;;;;1.20;1.00;;;21.80;99.90;;;;;;5136571;27;20761;-66
2021/06/27 06:58:30;;;;;;;1.50;1.15;;;21.90;99.90;;;;;;5136901;27;20450;-63
2021/06/27 07:00:58;;;;;;;1.60;1.10;;;21.80;99.90;;;;;;5135892;27;20486;-64
2021/06/27 07:03:26;;;;;;;2.10;1.20;;;21.80;99.90;;;;;;5116543;28;20522;-63
2021/06/27 07:05:54;;;;;;;1.60;1.20;;;21.70;99.90;;;;;;5116086;28;20498;-63
2021/06/27 07:08:21;;;;;;;1.80;1.30;;;21.60;99.90;;;;;;5115929;28;20440;-64
2021/06/27 07:10:48;;;;;;;1.40;1.10;;;21.60;99.90;;;;;;5116290;28;20471;-63
2021/06/27 07:13:15;;;;;;;1.42;1.20;;;21.60;99.90;;;;;;5116400;28;20677;-64
2021/06/27 07:15:42;;;;;;;1.30;1.00;;;21.60;99.90;;;;;;5116444;28;20463;-63
2021/06/27 07:18:09;;;;;;;1.50;1.20;;;21.70;99.90;;;;;;5099976;28;20485;-64
2021/06/27 07:20:37;;;;;;;1.90;1.20;;;21.90;99.90;;;;;;5114858;28;20452;-64
2021/06/27 07:23:04;;;;;;;2.20;1.10;;;22.00;99.90;;;;;;5115143;28;20448;-64
2021/06/27 07:25:31;;;;;;;1.30;1.05;;;22.10;99.90;;;;;;5115922;28;20488;-64
2021/06/27 07:27:58;;;;;;;1.33;1.10;;;22.30;99.90;;;;;;5115605;28;20799;-64
2021/06/27 07:30:25;;;;;;;1.70;1.20;;;22.50;99.90;;;;;;5115134;28;20846;-63
2021/06/27 07:32:52;;;;;;;1.70;1.20;;;22.60;99.90;;;;;;5115469;28;21004;-64
2021/06/27 07:35:19;;;;;;;2.30;1.30;;;22.70;99.90;;;;;;5115735;28;20504;-62
2021/06/27 07:37:47;;;;;;;1.75;1.33;;;22.70;99.90;;;;;;5115598;28;20520;-63
2021/06/27 07:40:15;;;;;;;1.40;1.17;;;22.70;99.90;;;;;;5114936;28;20491;-63
2021/06/27 07:42:42;;;;;;;1.80;1.20;;;22.60;99.90;;;;;;5111061;28;20448;-63
2021/06/27 07:45:10;;;;;;;2.00;1.10;;;22.50;99.90;;;;;;5114607;28;20427;-63
2021/06/27 07:47:37;;;;;;;1.50;1.20;;;22.60;99.90;;;;;;5114945;28;20503;-63
2021/06/27 07:50:05;;;;;;;1.90;1.00;;;22.70;99.90;;;;;;5113440;28;20460;-61
2021/06/27 07:52:36;;;;;;;1.40;1.10;;;23.00;99.90;;;;;;5115045;28;20863;-62
2021/06/27 07:55:05;;;;;;;1.27;1.00;;;23.20;99.90;;;;;;5114704;28;20424;-64
2021/06/27 07:57:32;;;;;;;1.50;1.20;;;23.40;99.90;;;;;;5114767;28;20488;-63
2021/06/27 07:59:59;;;;;;;1.30;1.00;;;23.50;99.90;;;;;;5113980;28;20514;-63
2021/06/27 08:02:26;;;;;;;1.60;1.10;;;23.70;99.90;;;;;;5125043;27;20884;-60
2021/06/27 08:04:53;;;;;;;2.05;1.10;;;23.90;99.90;;;;;;5132845;27;20825;-64
2021/06/27 08:07:19;;;;;;;2.20;1.00;;;24.00;99.90;;;;;;5132551;27;20787;-65
2021/06/27 08:09:46;;;;;;;1.40;1.10;;;23.90;99.90;;;;;;5133783;27;20509;-61
2021/06/27 08:12:15;;;;;;;1.63;1.10;;;24.00;99.90;;;;;;5133176;27;20461;-64
2021/06/27 08:14:41;;;;;;;1.30;1.10;;;24.10;99.90;;;;;;5126060;27;20458;-64
2021/06/27 08:17:08;;;;;;;1.50;1.10;;;24.10;99.90;;;;;;5134228;27;20761;-63
2021/06/27 08:19:35;;;;;;;1.70;1.17;;;24.10;99.90;;;;;;5133286;27;20938;-62
2021/06/27 08:22:02;;;;;;;1.60;1.10;;;24.10;99.90;;;;;;5132891;27;20958;-62
2021/06/27 08:24:29;;;;;;;1.30;1.00;;;24.20;99.90;;;;;;5132150;27;20474;-64
2021/06/27 08:26:56;;;;;;;1.20;1.00;;;24.30;99.90;;;;;;5131746;27;20698;-64
2021/06/27 08:29:24;;;;;;;1.30;1.00;;;24.30;99.90;;;;;;5130687;27;20509;-64
2021/06/27 08:31:51;;;;;;;1.20;1.00;;;24.50;99.90;;;;;;5131329;27;20422;-62
2021/06/27 08:34:18;;;;;;;1.10;0.90;;;24.60;99.90;;;;;;5131825;27;20837;-63
2021/06/27 08:36:45;;;;;;;1.00;0.80;;;24.70;99.90;;;;;;5133000;28;20784;-63
2021/06/27 08:39:12;;;;;;;1.15;0.90;;;24.60;99.90;;;;;;5132812;28;20426;-64
2021/06/27 08:41:39;;;;;;;1.00;0.90;;;24.60;99.90;;;;;;5133550;28;20457;-62
2021/06/27 08:44:07;;;;;;;1.40;0.77;;;24.80;99.90;;;;;;5133212;28;20513;-62
2021/06/27 08:46:38;;;;;;;1.00;0.80;;;25.10;99.90;;;;;;5133612;28;20414;-63
2021/06/27 08:49:05;;;;;;;1.00;0.80;;;25.20;99.90;;;;;;5132198;28;20423;-63
2021/06/27 08:51:36;;;;;;;1.25;0.80;;;25.40;99.90;;;;;;5132400;28;20609;-64
2021/06/27 08:54:04;;;;;;;1.00;0.75;;;25.50;99.90;;;;;;5131874;28;20434;-64
2021/06/27 08:56:30;;;;;;;0.90;0.70;;;25.60;99.90;;;;;;5132203;28;20478;-63
2021/06/27 08:58:57;;;;;;;0.90;0.70;;;25.60;99.90;;;;;;5133060;28;20462;-62
2021/06/27 09:01:24;;;;;;;1.10;0.90;;;25.70;99.90;;;;;;5133143;28;20501;-64
2021/06/27 09:03:55;;;;;;;1.40;0.80;;;25.80;99.90;;;;;;5132872;28;20450;-63
2021/06/27 09:06:26;;;;;;;1.60;0.70;;;26.00;99.90;;;;;;5134087;28;20430;-63
2021/06/27 09:09:14;;;;;;;0.90;0.80;;;26.00;99.90;;;;;;5133731;28;20466;-63
2021/06/27 09:11:41;;;;;;;1.00;0.88;;;26.10;99.90;;;;;;5132819;27;20783;-62
2021/06/27 09:14:27;;;;;;;1.00;0.80;;;26.40;99.90;;;;;;5135897;27;20542;-63
2021/06/27 09:17:09;;;;;;;1.10;0.80;;;26.60;99.90;;;;;;5135670;27;20406;-64
2021/06/27 09:20:02;;;;;;;1.00;0.80;;;26.50;99.90;;;;;;5136492;27;20457;-63
2021/06/27 09:22:31;;;;;;;1.10;0.77;;;26.40;99.90;;;;;;5136471;27;20422;-62
2021/06/27 09:25:13;;;;;;;0.77;0.60;;;26.50;99.90;;;;;;5136203;27;20461;-65
2021/06/27 09:27:40;;;;;;;0.90;0.73;;;26.50;99.90;;;;;;5137140;27;20697;-65
2021/06/27 09:30:17;;;;;;;1.00;0.70;;;26.70;99.90;;;;;;5135839;27;20513;-61
2021/06/27 09:32:55;;;;;;;1.10;0.70;;;26.80;99.90;;;;;;5130816;27;20843;-65
2021/06/27 09:35:47;;;;;;;0.90;0.70;;;26.90;99.90;;;;;;5133498;27;20505;-58
2021/06/27 09:38:32;;;;;;;0.90;0.70;;;27.00;99.90;;;;;;5134376;27;20603;-58
2021/06/27 09:41:01;;;;;;;1.10;0.80;;;27.10;99.90;;;;;;5132921;27;20414;-59
2021/06/27 09:43:30;;;;;;;0.90;0.70;;;27.00;99.90;;;;;;5133783;27;20856;-58
2021/06/27 09:45:58;;;;;;;0.80;0.70;;;27.10;99.90;;;;;;5135059;27;20778;-59
2021/06/27 09:48:26;;;;;;;1.00;0.70;;;27.00;99.90;;;;;;5135689;27;20450;-59
2021/06/27 09:50:58;;;;;;;0.80;0.70;;;27.00;99.90;;;;;;5136131;27;20514;-59
2021/06/27 09:53:35;;;;;;;0.87;0.70;;;27.10;99.90;;;;;;5126472;27;20428;-58
2021/06/27 09:56:04;;;;;;;1.20;0.63;;;27.40;99.90;;;;;;5135529;27;20425;-59
2021/06/27 09:58:31;;;;;;;0.90;0.70;;;27.50;99.90;;;;;;5135407;27;20819;-59
2021/06/27 10:00:58;;;;;;;0.88;0.70;;;27.50;99.90;;;;;;5134746;27;20454;-59
2021/06/27 10:03:25;;;;;;;2.03;0.70;;;27.40;99.90;;;;;;5135394;27;20436;-58
2021/06/27 10:06:03;;;;;;;0.85;0.70;;;27.30;99.90;;;;;;5134826;27;20410;-58
2021/06/27 10:08:31;;;;;;;0.90;0.60;;;27.30;99.90;;;;;;5133833;27;20951;-60
2021/06/27 10:11:08;;;;;;;1.23;0.70;;;27.50;99.90;;;;;;5134353;27;20517;-58
2021/06/27 10:13:35;;;;;;;1.20;0.70;;;27.80;99.90;;;;;;5133241;27;20864;-58
2021/06/27 10:16:02;;;;;;;0.90;0.70;;;27.80;99.90;;;;;;5133647;27;20467;-58
2021/06/27 10:18:30;;;;;;;0.80;0.68;;;28.10;99.90;;;;;;5134069;27;20840;-59
2021/06/27 10:20:58;;;;;;;1.30;0.60;;;28.50;99.90;;;;;;5132664;27;20785;-58
2021/06/27 10:23:26;;;;;;;0.90;0.70;;;28.80;99.90;;;;;;5133139;27;20512;-58
2021/06/27 10:25:54;;;;;;;0.80;0.70;;;28.90;99.90;;;;;;5134757;27;20446;-58
2021/06/27 10:28:21;;;;;;;2.20;0.70;;;29.20;99.90;;;;;;5134968;27;20525;-59
2021/06/27 10:30:50;;;;;;;1.10;0.60;;;29.20;99.90;;;;;;5133186;27;20782;-58
2021/06/27 10:33:19;;;;;;;0.70;0.60;;;29.20;99.90;;;;;;5133811;27;20702;-59
2021/06/27 10:35:50;;;;;;;0.80;0.60;;;29.40;99.90;;;;;;5132544;27;20418;-59
2021/06/27 10:38:22;;;;;;;0.80;0.70;;;28.80;99.90;;;;;;5133844;27;20454;-60
2021/06/27 10:40:51;;;;;;;0.90;0.63;;;28.70;99.90;;;;;;5134428;27;20525;-60
2021/06/27 10:43:18;;;;;;;0.80;0.60;;;29.10;99.90;;;;;;5133827;27;20426;-60
2021/06/27 10:46:03;;;;;;;0.80;0.70;;;29.30;99.90;;;;;;5133309;27;20414;-60
2021/06/27 10:48:40;;;;;;;0.80;0.60;;;29.80;99.90;;;;;;5134689;27;20423;-62
2021/06/27 10:51:10;;;;;;;1.53;0.60;;;30.40;99.90;;;;;;5132865;27;20426;-60
2021/06/27 10:54:13;;;;;;;0.80;0.60;;;30.70;99.90;;;;;;5134888;27;20430;-61
2021/06/27 10:56:53;;;;;;;0.80;0.50;;;30.50;98.80;;;;;;5135318;27;20411;-61
2021/06/27 10:59:57;;;;;;;0.80;0.60;;;30.50;97.90;;;;;;5118147;27;20821;-61
2021/06/27 11:02:48;;;;;;;0.70;0.60;;;30.90;97.50;;;;;;5126767;27;20447;-60
2021/06/27 11:05:39;;;;;;;0.80;0.60;;;31.30;94.10;;;;;;5108397;27;20427;-59
2021/06/27 11:08:08;;;;;;;0.70;0.50;;;30.60;93.90;;;;;;5133409;27;20422;-58
2021/06/27 11:10:37;;;;;;;0.90;0.70;;;30.50;95.00;;;;;;5133434;27;20785;-57
2021/06/27 11:13:19;;;;;;;1.40;0.50;;;30.50;93.80;;;;;;5132676;27;20774;-58
2021/06/27 11:16:10;;;;;;;0.60;0.50;;;30.60;90.90;;;;;;5130806;27;20414;-58
2021/06/27 11:18:39;;;;;;;0.60;0.50;;;30.30;90.20;;;;;;5130189;27;20567;-60
2021/06/27 11:21:14;;;;;;;0.65;0.50;;;30.70;88.10;;;;;;5130253;27;20469;-60
2021/06/27 11:23:53;;;;;;;0.70;0.43;;;30.90;86.30;;;;;;5131930;27;20490;-59
2021/06/27 11:26:51;;;;;;;0.70;0.57;;;31.10;87.30;;;;;;5132079;27;20471;-59
2021/06/27 11:29:47;;;;;;;0.80;0.50;;;31.50;84.20;;;;;;5110545;28;20432;-59
2021/06/27 11:32:48;;;;;;;0.70;0.50;;;30.70;89.60;;;;;;5109677;28;20464;-58
2021/06/27 11:35:41;;;;;;;0.82;0.50;;;30.80;89.60;;;;;;5109540;28;20451;-59
2021/06/27 11:38:29;;;;;;;0.70;0.50;;;31.20;85.10;;;;;;5115452;27;20461;-59
2021/06/27 11:40:56;;;;;;;0.70;0.45;;;31.30;85.60;;;;;;5127393;27;20433;-58
2021/06/27 11:43:54;;;;;;;0.70;0.50;;;31.40;86.60;;;;;;5132555;27;20505;-59
2021/06/27 11:46:32;;;;;;;0.70;0.50;;;31.50;88.00;;;;;;5132722;27;20406;-58
2021/06/27 11:49:01;;;;;;;0.75;0.50;;;31.60;87.60;;;;;;5132715;27;20450;-60
2021/06/27 11:51:35;;;;;;;0.70;0.60;;;31.80;87.50;;;;;;5132173;27;20496;-58
2021/06/27 11:54:02;;;;;;;0.90;0.60;;;31.90;89.60;;;;;;5129648;27;20520;-58
2021/06/27 11:56:47;;;;;;;0.70;0.50;;;32.40;87.50;;;;;;5130264;27;20410;-59
2021/06/27 11:59:15;;;;;;;1.00;0.60;;;32.50;85.70;;;;;;5130126;27;20765;-59
2021/06/27 12:01:42;;;;;;;0.70;0.60;;;32.70;81.60;;;;;;5130263;27;20437;-60
2021/06/27 12:04:09;;;;;;;0.70;0.60;;;32.00;83.30;;;;;;5129795;27;20415;-59
2021/06/27 12:06:36;;;;;;;0.70;0.50;;;32.40;81.60;;;;;;5129888;27;20777;-58
2021/06/27 12:09:04;;;;;;;0.80;0.60;;;32.70;81.10;;;;;;5130793;27;20426;-58
2021/06/27 12:11:31;;;;;;;0.63;0.50;;;32.30;81.30;;;;;;5132105;27;20522;-58
2021/06/27 12:13:58;;;;;;;0.80;0.60;;;31.70;82.90;;;;;;5130986;27;20469;-58
2021/06/27 12:16:32;;;;;;;0.70;0.60;;;32.10;83.30;;;;;;5131137;27;20441;-59
2021/06/27 12:18:59;;;;;;;0.60;0.50;;;32.40;79.00;;;;;;5131967;27;20509;-59
2021/06/27 12:21:27;;;;;;;0.60;0.50;;;32.10;78.50;;;;;;5131919;27;20417;-59
2021/06/27 12:23:58;;;;;;;0.70;0.60;;;31.90;80.60;;;;;;5131045;27;20473;-59
2021/06/27 12:26:25;;;;;;;1.00;0.57;;;32.00;80.30;;;;;;5131412;27;20399;-59
2021/06/27 12:28:54;;;;;;;0.60;0.50;;;32.40;79.60;;;;;;5131176;27;20425;-59
2021/06/27 12:31:23;;;;;;;0.70;0.50;;;32.70;77.10;;;;;;5129134;27;20458;-59
2021/06/27 12:33:53;;;;;;;0.70;0.50;;;33.00;76.70;;;;;;5129516;27;20426;-59
2021/06/27 12:36:25;;;;;;;1.30;0.50;;;33.30;75.50;;;;;;5130159;28;20509;-59
2021/06/27 12:38:55;;;;;;;0.70;0.50;;;33.40;73.30;;;;;;5122042;28;20526;-58
2021/06/27 12:41:25;;;;;;;0.70;0.50;;;33.50;70.30;;;;;;5131256;28;20421;-59
2021/06/27 12:43:55;;;;;;;0.70;0.50;;;33.60;70.60;;;;;;5131735;28;20461;-59
2021/06/27 12:46:27;;;;;;;0.60;0.50;;;33.80;69.70;;;;;;5131799;27;20441;-58
2021/06/27 12:49:14;;;;;;;0.60;0.50;;;33.40;69.40;;;;;;5135297;27;20938;-59
2021/06/27 12:51:43;;;;;;;0.60;0.50;;;33.30;69.10;;;;;;5131491;27;20715;-59
2021/06/27 12:54:13;;;;;;;0.65;0.52;;;32.90;69.70;;;;;;5132345;27;20426;-58
2021/06/27 12:57:08;;;;;;;0.70;0.50;;;33.20;68.40;;;;;;5135297;27;20490;-59
2021/06/27 12:59:50;;;;;;;0.80;0.60;;;32.00;67.60;;;;;;5134177;27;20654;-58